sensor_id;sensor_type;location;lat;lon;timestamp;P1;durP1;ratioP1;P2;durP2;ratioP2
41635;SDS011;27623;51.966;4.602;2023-02-28T00:00:20;11.43;;;2.47;;
41635;SDS011;27623;51.966;4.602;2023-02-28T00:02:46;3.38;;;1.50;;
41635;SDS011;27623;51.966;4.602;2023-02-28T00:05:12;6.63;;;1.73;;
41635;SDS011;27623;51.966;4.602;2023-02-28T00:07:39;4.55;;;1.90;;
41635;SDS011;27623;51.966;4.602;2023-02-28T00:10:05;4.18;;;2.10;;
41635;SDS011;27623;51.966;4.602;2023-02-28T00:12:32;3.80;;;1.80;;
41635;SDS011;27623;51.966;4.602;2023-02-28T00:14:59;3.90;;;1.50;;
41635;SDS011;27623;51.966;4.602;2023-02-28T00:17:24;7.88;;;1.98;;
41635;SDS011;27623;51.966;4.602;2023-02-28T00:19:50;3.92;;;1.75;;
41635;SDS011;27623;51.966;4.602;2023-02-28T00:22:20;4.93;;;1.55;;
41635;SDS011;27623;51.966;4.602;2023-02-28T00:24:46;4.88;;;1.73;;
41635;SDS011;27623;51.966;4.602;2023-02-28T00:27:12;4.05;;;1.38;;
41635;SDS011;27623;51.966;4.602;2023-02-28T00:29:38;4.45;;;2.17;;
41635;SDS011;27623;51.966;4.602;2023-02-28T00:32:04;4.93;;;1.73;;
41635;SDS011;27623;51.966;4.602;2023-02-28T00:34:30;3.75;;;1.30;;
41635;SDS011;27623;51.966;4.602;2023-02-28T00:36:56;4.93;;;1.88;;
41635;SDS011;27623;51.966;4.602;2023-02-28T00:39:21;4.18;;;1.75;;
41635;SDS011;27623;51.966;4.602;2023-02-28T00:41:47;3.80;;;1.80;;
41635;SDS011;27623;51.966;4.602;2023-02-28T00:44:12;3.15;;;1.38;;
41635;SDS011;27623;51.966;4.602;2023-02-28T00:46:38;3.20;;;1.55;;
41635;SDS011;27623;51.966;4.602;2023-02-28T00:49:03;4.55;;;1.48;;
41635;SDS011;27623;51.966;4.602;2023-02-28T00:51:28;6.03;;;1.90;;
41635;SDS011;27623;51.966;4.602;2023-02-28T00:53:54;8.05;;;1.63;;
41635;SDS011;27623;51.966;4.602;2023-02-28T00:56:19;3.47;;;1.55;;
41635;SDS011;27623;51.966;4.602;2023-02-28T00:58:45;5.55;;;1.60;;
41635;SDS011;27623;51.966;4.602;2023-02-28T01:01:10;4.35;;;1.58;;
41635;SDS011;27623;51.966;4.602;2023-02-28T01:03:36;4.22;;;1.65;;
41635;SDS011;27623;51.966;4.602;2023-02-28T01:06:04;5.15;;;1.50;;
41635;SDS011;27623;51.966;4.602;2023-02-28T01:08:29;4.72;;;1.70;;
41635;SDS011;27623;51.966;4.602;2023-02-28T01:10:55;6.72;;;1.80;;
41635;SDS011;27623;51.966;4.602;2023-02-28T01:13:20;5.45;;;1.90;;
41635;SDS011;27623;51.966;4.602;2023-02-28T01:15:52;7.22;;;1.65;;
41635;SDS011;27623;51.966;4.602;2023-02-28T01:18:20;7.60;;;1.42;;
41635;SDS011;27623;51.966;4.602;2023-02-28T01:20:46;5.88;;;1.42;;
41635;SDS011;27623;51.966;4.602;2023-02-28T01:23:12;4.60;;;1.45;;
41635;SDS011;27623;51.966;4.602;2023-02-28T01:25:37;3.35;;;1.35;;
41635;SDS011;27623;51.966;4.602;2023-02-28T01:28:03;4.10;;;1.70;;
41635;SDS011;27623;51.966;4.602;2023-02-28T01:30:29;4.53;;;1.42;;
41635;SDS011;27623;51.966;4.602;2023-02-28T01:32:55;6.35;;;1.40;;
41635;SDS011;27623;51.966;4.602;2023-02-28T01:35:20;5.13;;;1.85;;
41635;SDS011;27623;51.966;4.602;2023-02-28T01:37:46;6.90;;;1.95;;
41635;SDS011;27623;51.966;4.602;2023-02-28T01:40:11;4.18;;;1.90;;
41635;SDS011;27623;51.966;4.602;2023-02-28T01:42:37;5.93;;;1.48;;
41635;SDS011;27623;51.966;4.602;2023-02-28T01:45:06;3.72;;;1.60;;
41635;SDS011;27623;51.966;4.602;2023-02-28T01:47:58;4.97;;;1.73;;
41635;SDS011;27623;51.966;4.602;2023-02-28T01:50:31;10.07;;;1.33;;
41635;SDS011;27623;51.966;4.602;2023-02-28T01:53:01;2.95;;;1.75;;
41635;SDS011;27623;51.966;4.602;2023-02-28T01:55:31;6.55;;;2.10;;
41635;SDS011;27623;51.966;4.602;2023-02-28T01:58:00;3.45;;;1.67;;
41635;SDS011;27623;51.966;4.602;2023-02-28T02:00:29;3.70;;;1.35;;
41635;SDS011;27623;51.966;4.602;2023-02-28T02:03:17;5.15;;;1.30;;
41635;SDS011;27623;51.966;4.602;2023-02-28T02:05:45;3.53;;;1.60;;
41635;SDS011;27623;51.966;4.602;2023-02-28T02:08:16;4.38;;;1.55;;
41635;SDS011;27623;51.966;4.602;2023-02-28T02:10:51;3.67;;;1.60;;
41635;SDS011;27623;51.966;4.602;2023-02-28T02:13:24;3.45;;;1.50;;
41635;SDS011;27623;51.966;4.602;2023-02-28T02:35:14;6.70;;;1.52;;
41635;SDS011;27623;51.966;4.602;2023-02-28T02:37:49;4.22;;;1.63;;
41635;SDS011;27623;51.966;4.602;2023-02-28T02:40:22;2.67;;;1.20;;
41635;SDS011;27623;51.966;4.602;2023-02-28T02:43:04;4.97;;;1.52;;
41635;SDS011;27623;51.966;4.602;2023-02-28T02:45:49;6.05;;;1.65;;
41635;SDS011;27623;51.966;4.602;2023-02-28T02:48:21;4.35;;;1.60;;
41635;SDS011;27623;51.966;4.602;2023-02-28T02:50:55;8.73;;;2.13;;
41635;SDS011;27623;51.966;4.602;2023-02-28T02:53:27;8.20;;;1.70;;
41635;SDS011;27623;51.966;4.602;2023-02-28T02:55:57;4.82;;;1.75;;
41635;SDS011;27623;51.966;4.602;2023-02-28T02:58:29;15.57;;;2.47;;
41635;SDS011;27623;51.966;4.602;2023-02-28T03:01:00;5.00;;;2.00;;
41635;SDS011;27623;51.966;4.602;2023-02-28T03:03:27;5.50;;;2.00;;
41635;SDS011;27623;51.966;4.602;2023-02-28T03:05:56;3.58;;;1.73;;
41635;SDS011;27623;51.966;4.602;2023-02-28T03:08:24;5.68;;;1.80;;
41635;SDS011;27623;51.966;4.602;2023-02-28T03:10:50;3.80;;;1.90;;
41635;SDS011;27623;51.966;4.602;2023-02-28T03:16:32;4.70;;;1.90;;
41635;SDS011;27623;51.966;4.602;2023-02-28T03:25:13;7.25;;;2.03;;
41635;SDS011;27623;51.966;4.602;2023-02-28T03:28:03;5.03;;;2.13;;
41635;SDS011;27623;51.966;4.602;2023-02-28T03:36:12;4.85;;;1.95;;
41635;SDS011;27623;51.966;4.602;2023-02-28T03:38:44;5.10;;;1.95;;
41635;SDS011;27623;51.966;4.602;2023-02-28T03:41:21;3.75;;;1.73;;
41635;SDS011;27623;51.966;4.602;2023-02-28T03:43:55;5.43;;;2.08;;
41635;SDS011;27623;51.966;4.602;2023-02-28T03:46:25;3.10;;;2.03;;
41635;SDS011;27623;51.966;4.602;2023-02-28T03:51:46;3.70;;;1.85;;
41635;SDS011;27623;51.966;4.602;2023-02-28T03:54:15;5.72;;;2.00;;
41635;SDS011;27623;51.966;4.602;2023-02-28T03:56:51;6.70;;;2.42;;
41635;SDS011;27623;51.966;4.602;2023-02-28T03:59:26;3.53;;;1.80;;
41635;SDS011;27623;51.966;4.602;2023-02-28T04:01:58;5.13;;;1.88;;
41635;SDS011;27623;51.966;4.602;2023-02-28T04:04:24;4.47;;;2.13;;
41635;SDS011;27623;51.966;4.602;2023-02-28T04:06:50;5.40;;;2.00;;
41635;SDS011;27623;51.966;4.602;2023-02-28T04:09:17;5.03;;;2.50;;
41635;SDS011;27623;51.966;4.602;2023-02-28T04:11:49;4.13;;;1.90;;
41635;SDS011;27623;51.966;4.602;2023-02-28T04:14:20;7.07;;;2.35;;
41635;SDS011;27623;51.966;4.602;2023-02-28T04:16:46;5.60;;;2.22;;
41635;SDS011;27623;51.966;4.602;2023-02-28T04:19:16;6.18;;;2.38;;
41635;SDS011;27623;51.966;4.602;2023-02-28T04:21:42;5.32;;;1.85;;
41635;SDS011;27623;51.966;4.602;2023-02-28T04:24:10;4.60;;;2.40;;
41635;SDS011;27623;51.966;4.602;2023-02-28T04:26:42;4.25;;;2.10;;
41635;SDS011;27623;51.966;4.602;2023-02-28T04:29:09;6.47;;;2.42;;
41635;SDS011;27623;51.966;4.602;2023-02-28T04:31:36;6.40;;;2.63;;
41635;SDS011;27623;51.966;4.602;2023-02-28T04:34:02;5.00;;;2.97;;
41635;SDS011;27623;51.966;4.602;2023-02-28T04:36:28;4.78;;;2.30;;
41635;SDS011;27623;51.966;4.602;2023-02-28T04:38:53;6.32;;;2.90;;
41635;SDS011;27623;51.966;4.602;2023-02-28T04:41:19;11.60;;;2.92;;
41635;SDS011;27623;51.966;4.602;2023-02-28T04:43:45;8.63;;;2.75;;
41635;SDS011;27623;51.966;4.602;2023-02-28T04:46:11;4.38;;;2.30;;
41635;SDS011;27623;51.966;4.602;2023-02-28T04:48:37;5.55;;;2.75;;
41635;SDS011;27623;51.966;4.602;2023-02-28T04:51:06;6.47;;;2.63;;
41635;SDS011;27623;51.966;4.602;2023-02-28T04:53:34;6.70;;;2.78;;
41635;SDS011;27623;51.966;4.602;2023-02-28T04:56:00;7.18;;;2.80;;
41635;SDS011;27623;51.966;4.602;2023-02-28T04:58:26;6.97;;;2.95;;
41635;SDS011;27623;51.966;4.602;2023-02-28T05:00:53;8.73;;;3.30;;
41635;SDS011;27623;51.966;4.602;2023-02-28T05:03:19;5.65;;;2.78;;
41635;SDS011;27623;51.966;4.602;2023-02-28T05:05:45;8.18;;;3.42;;
41635;SDS011;27623;51.966;4.602;2023-02-28T05:08:11;11.30;;;4.78;;
41635;SDS011;27623;51.966;4.602;2023-02-28T05:10:40;7.68;;;4.20;;
41635;SDS011;27623;51.966;4.602;2023-02-28T05:13:05;6.35;;;3.85;;
41635;SDS011;27623;51.966;4.602;2023-02-28T05:15:30;11.45;;;3.70;;
41635;SDS011;27623;51.966;4.602;2023-02-28T05:17:58;8.93;;;4.28;;
41635;SDS011;27623;51.966;4.602;2023-02-28T05:20:23;10.05;;;3.97;;
41635;SDS011;27623;51.966;4.602;2023-02-28T05:22:52;8.38;;;4.25;;
41635;SDS011;27623;51.966;4.602;2023-02-28T05:25:19;9.43;;;4.43;;
41635;SDS011;27623;51.966;4.602;2023-02-28T05:27:47;10.10;;;4.43;;
41635;SDS011;27623;51.966;4.602;2023-02-28T05:30:12;9.45;;;3.80;;
41635;SDS011;27623;51.966;4.602;2023-02-28T05:32:38;6.40;;;4.00;;
41635;SDS011;27623;51.966;4.602;2023-02-28T05:35:08;7.45;;;4.03;;
41635;SDS011;27623;51.966;4.602;2023-02-28T05:37:35;9.52;;;3.92;;
41635;SDS011;27623;51.966;4.602;2023-02-28T05:40:00;7.47;;;4.22;;
41635;SDS011;27623;51.966;4.602;2023-02-28T05:42:26;8.75;;;3.92;;
41635;SDS011;27623;51.966;4.602;2023-02-28T05:44:51;8.98;;;4.97;;
41635;SDS011;27623;51.966;4.602;2023-02-28T05:47:17;8.52;;;3.53;;
41635;SDS011;27623;51.966;4.602;2023-02-28T05:49:44;9.40;;;4.13;;
41635;SDS011;27623;51.966;4.602;2023-02-28T05:52:10;6.75;;;3.45;;
41635;SDS011;27623;51.966;4.602;2023-02-28T05:54:35;5.32;;;3.00;;
41635;SDS011;27623;51.966;4.602;2023-02-28T05:57:01;6.38;;;3.38;;
41635;SDS011;27623;51.966;4.602;2023-02-28T05:59:26;8.85;;;3.25;;
41635;SDS011;27623;51.966;4.602;2023-02-28T06:01:51;7.35;;;3.15;;
41635;SDS011;27623;51.966;4.602;2023-02-28T06:04:18;8.57;;;3.08;;
41635;SDS011;27623;51.966;4.602;2023-02-28T06:06:45;6.18;;;3.10;;
41635;SDS011;27623;51.966;4.602;2023-02-28T06:09:12;5.78;;;3.25;;
41635;SDS011;27623;51.966;4.602;2023-02-28T06:11:37;5.68;;;3.00;;
41635;SDS011;27623;51.966;4.602;2023-02-28T06:14:03;6.00;;;2.90;;
41635;SDS011;27623;51.966;4.602;2023-02-28T06:16:30;4.60;;;3.08;;
41635;SDS011;27623;51.966;4.602;2023-02-28T06:18:57;4.68;;;2.38;;
41635;SDS011;27623;51.966;4.602;2023-02-28T06:21:23;5.28;;;2.80;;
41635;SDS011;27623;51.966;4.602;2023-02-28T06:23:49;5.18;;;2.72;;
41635;SDS011;27623;51.966;4.602;2023-02-28T06:26:17;3.95;;;2.28;;
41635;SDS011;27623;51.966;4.602;2023-02-28T06:28:43;5.72;;;2.30;;
41635;SDS011;27623;51.966;4.602;2023-02-28T06:31:09;3.83;;;2.50;;
41635;SDS011;27623;51.966;4.602;2023-02-28T06:33:37;4.68;;;2.60;;
41635;SDS011;27623;51.966;4.602;2023-02-28T06:36:03;4.85;;;2.17;;
41635;SDS011;27623;51.966;4.602;2023-02-28T06:38:30;5.22;;;2.83;;
41635;SDS011;27623;51.966;4.602;2023-02-28T06:40:56;5.57;;;2.63;;
41635;SDS011;27623;51.966;4.602;2023-02-28T06:43:23;5.07;;;2.63;;
41635;SDS011;27623;51.966;4.602;2023-02-28T06:45:50;6.43;;;2.80;;
41635;SDS011;27623;51.966;4.602;2023-02-28T06:48:16;4.05;;;2.58;;
41635;SDS011;27623;51.966;4.602;2023-02-28T06:50:41;6.72;;;2.80;;
41635;SDS011;27623;51.966;4.602;2023-02-28T06:53:07;5.15;;;2.60;;
41635;SDS011;27623;51.966;4.602;2023-02-28T06:55:32;4.82;;;2.40;;
41635;SDS011;27623;51.966;4.602;2023-02-28T06:58:00;4.82;;;2.30;;
41635;SDS011;27623;51.966;4.602;2023-02-28T07:00:25;9.15;;;2.60;;
41635;SDS011;27623;51.966;4.602;2023-02-28T07:02:51;6.03;;;2.58;;
41635;SDS011;27623;51.966;4.602;2023-02-28T07:05:16;5.00;;;2.47;;
41635;SDS011;27623;51.966;4.602;2023-02-28T07:07:41;5.63;;;2.58;;
41635;SDS011;27623;51.966;4.602;2023-02-28T07:10:12;4.90;;;2.72;;
41635;SDS011;27623;51.966;4.602;2023-02-28T07:12:40;4.28;;;2.60;;
41635;SDS011;27623;51.966;4.602;2023-02-28T07:15:06;6.00;;;2.33;;
41635;SDS011;27623;51.966;4.602;2023-02-28T07:17:32;6.28;;;2.65;;
41635;SDS011;27623;51.966;4.602;2023-02-28T07:19:57;4.57;;;2.60;;
41635;SDS011;27623;51.966;4.602;2023-02-28T07:22:22;5.40;;;2.58;;
41635;SDS011;27623;51.966;4.602;2023-02-28T07:24:48;4.88;;;2.70;;
41635;SDS011;27623;51.966;4.602;2023-02-28T07:27:16;5.78;;;2.88;;
41635;SDS011;27623;51.966;4.602;2023-02-28T07:29:51;5.93;;;2.70;;
41635;SDS011;27623;51.966;4.602;2023-02-28T07:32:17;7.70;;;2.75;;
41635;SDS011;27623;51.966;4.602;2023-02-28T07:34:44;3.55;;;2.25;;
41635;SDS011;27623;51.966;4.602;2023-02-28T07:37:09;7.03;;;2.85;;
41635;SDS011;27623;51.966;4.602;2023-02-28T07:39:37;5.55;;;2.80;;
41635;SDS011;27623;51.966;4.602;2023-02-28T07:42:05;5.25;;;2.45;;
41635;SDS011;27623;51.966;4.602;2023-02-28T07:44:31;7.57;;;2.65;;
41635;SDS011;27623;51.966;4.602;2023-02-28T07:46:57;4.63;;;2.55;;
41635;SDS011;27623;51.966;4.602;2023-02-28T07:49:22;4.55;;;2.58;;
41635;SDS011;27623;51.966;4.602;2023-02-28T07:51:48;4.47;;;2.67;;
41635;SDS011;27623;51.966;4.602;2023-02-28T07:54:13;4.25;;;2.50;;
41635;SDS011;27623;51.966;4.602;2023-02-28T07:56:39;4.57;;;2.78;;
41635;SDS011;27623;51.966;4.602;2023-02-28T07:59:04;4.47;;;2.40;;
41635;SDS011;27623;51.966;4.602;2023-02-28T08:01:29;4.30;;;2.75;;
41635;SDS011;27623;51.966;4.602;2023-02-28T08:03:55;6.28;;;2.92;;
41635;SDS011;27623;51.966;4.602;2023-02-28T08:06:23;6.05;;;2.75;;
41635;SDS011;27623;51.966;4.602;2023-02-28T08:08:50;5.38;;;2.70;;
41635;SDS011;27623;51.966;4.602;2023-02-28T08:11:17;5.00;;;2.97;;
41635;SDS011;27623;51.966;4.602;2023-02-28T08:13:43;7.20;;;2.78;;
41635;SDS011;27623;51.966;4.602;2023-02-28T08:16:09;5.90;;;2.72;;
41635;SDS011;27623;51.966;4.602;2023-02-28T08:18:42;5.03;;;2.60;;
41635;SDS011;27623;51.966;4.602;2023-02-28T08:21:08;6.93;;;2.83;;
41635;SDS011;27623;51.966;4.602;2023-02-28T08:23:35;7.47;;;3.08;;
41635;SDS011;27623;51.966;4.602;2023-02-28T08:26:01;9.52;;;3.35;;
41635;SDS011;27623;51.966;4.602;2023-02-28T08:28:27;7.35;;;4.00;;
41635;SDS011;27623;51.966;4.602;2023-02-28T08:30:53;8.85;;;3.67;;
41635;SDS011;27623;51.966;4.602;2023-02-28T08:33:20;8.13;;;3.25;;
41635;SDS011;27623;51.966;4.602;2023-02-28T08:35:45;9.82;;;3.97;;
41635;SDS011;27623;51.966;4.602;2023-02-28T08:38:11;7.30;;;3.80;;
41635;SDS011;27623;51.966;4.602;2023-02-28T08:40:36;10.18;;;3.38;;
41635;SDS011;27623;51.966;4.602;2023-02-28T08:43:01;6.10;;;3.08;;
41635;SDS011;27623;51.966;4.602;2023-02-28T08:45:29;7.53;;;2.83;;
41635;SDS011;27623;51.966;4.602;2023-02-28T08:47:55;5.05;;;3.25;;
41635;SDS011;27623;51.966;4.602;2023-02-28T08:50:23;7.90;;;3.28;;
41635;SDS011;27623;51.966;4.602;2023-02-28T08:52:48;8.05;;;3.55;;
41635;SDS011;27623;51.966;4.602;2023-02-28T08:55:13;5.63;;;3.47;;
41635;SDS011;27623;51.966;4.602;2023-02-28T08:57:41;6.53;;;3.40;;
41635;SDS011;27623;51.966;4.602;2023-02-28T09:00:07;9.35;;;3.38;;
41635;SDS011;27623;51.966;4.602;2023-02-28T09:02:32;6.53;;;3.70;;
41635;SDS011;27623;51.966;4.602;2023-02-28T09:04:58;6.50;;;3.50;;
41635;SDS011;27623;51.966;4.602;2023-02-28T09:07:24;7.13;;;3.42;;
41635;SDS011;27623;51.966;4.602;2023-02-28T09:09:50;6.90;;;4.15;;
41635;SDS011;27623;51.966;4.602;2023-02-28T09:12:19;9.48;;;3.42;;
41635;SDS011;27623;51.966;4.602;2023-02-28T09:14:49;5.30;;;3.40;;
41635;SDS011;27623;51.966;4.602;2023-02-28T09:17:14;7.25;;;3.90;;
41635;SDS011;27623;51.966;4.602;2023-02-28T09:19:43;9.43;;;3.92;;
41635;SDS011;27623;51.966;4.602;2023-02-28T09:22:09;10.68;;;4.30;;
41635;SDS011;27623;51.966;4.602;2023-02-28T09:24:36;11.80;;;4.55;;
41635;SDS011;27623;51.966;4.602;2023-02-28T09:27:02;8.55;;;3.40;;
41635;SDS011;27623;51.966;4.602;2023-02-28T09:29:29;6.43;;;3.83;;
41635;SDS011;27623;51.966;4.602;2023-02-28T09:31:55;8.43;;;3.88;;
41635;SDS011;27623;51.966;4.602;2023-02-28T09:34:23;8.38;;;3.80;;
41635;SDS011;27623;51.966;4.602;2023-02-28T09:36:49;7.35;;;3.83;;
41635;SDS011;27623;51.966;4.602;2023-02-28T09:39:19;6.70;;;3.60;;
41635;SDS011;27623;51.966;4.602;2023-02-28T09:41:46;5.15;;;2.83;;
41635;SDS011;27623;51.966;4.602;2023-02-28T09:44:25;7.65;;;3.08;;
41635;SDS011;27623;51.966;4.602;2023-02-28T09:52:41;10.27;;;4.13;;
41635;SDS011;27623;51.966;4.602;2023-02-28T09:57:53;8.05;;;3.15;;
41635;SDS011;27623;51.966;4.602;2023-02-28T10:03:03;6.13;;;3.33;;
41635;SDS011;27623;51.966;4.602;2023-02-28T10:05:37;4.75;;;2.95;;
41635;SDS011;27623;51.966;4.602;2023-02-28T10:08:13;9.00;;;2.70;;
41635;SDS011;27623;51.966;4.602;2023-02-28T10:10:47;5.60;;;3.22;;
41635;SDS011;27623;51.966;4.602;2023-02-28T10:15:58;7.63;;;2.88;;
41635;SDS011;27623;51.966;4.602;2023-02-28T10:18:31;5.10;;;2.78;;
41635;SDS011;27623;51.966;4.602;2023-02-28T10:21:08;7.68;;;2.72;;
41635;SDS011;27623;51.966;4.602;2023-02-28T10:23:44;5.63;;;2.67;;
41635;SDS011;27623;51.966;4.602;2023-02-28T10:26:13;4.57;;;2.60;;
41635;SDS011;27623;51.966;4.602;2023-02-28T10:28:43;6.00;;;2.38;;
41635;SDS011;27623;51.966;4.602;2023-02-28T10:31:14;7.28;;;3.22;;
41635;SDS011;27623;51.966;4.602;2023-02-28T10:33:43;8.15;;;3.20;;
41635;SDS011;27623;51.966;4.602;2023-02-28T10:36:17;6.93;;;2.80;;
41635;SDS011;27623;51.966;4.602;2023-02-28T10:38:45;6.03;;;3.22;;
41635;SDS011;27623;51.966;4.602;2023-02-28T10:41:16;8.50;;;3.40;;
41635;SDS011;27623;51.966;4.602;2023-02-28T10:44:16;4.72;;;2.85;;
41635;SDS011;27623;51.966;4.602;2023-02-28T10:46:46;5.85;;;2.88;;
41635;SDS011;27623;51.966;4.602;2023-02-28T10:49:13;7.53;;;3.10;;
41635;SDS011;27623;51.966;4.602;2023-02-28T10:51:47;5.55;;;3.00;;
41635;SDS011;27623;51.966;4.602;2023-02-28T10:54:31;5.03;;;2.72;;
41635;SDS011;27623;51.966;4.602;2023-02-28T10:59:42;6.35;;;2.58;;
41635;SDS011;27623;51.966;4.602;2023-02-28T11:04:56;3.78;;;2.20;;
41635;SDS011;27623;51.966;4.602;2023-02-28T11:07:22;3.30;;;1.77;;
41635;SDS011;27623;51.966;4.602;2023-02-28T11:09:49;3.38;;;2.00;;
41635;SDS011;27623;51.966;4.602;2023-02-28T11:12:20;2.30;;;1.60;;
41635;SDS011;27623;51.966;4.602;2023-02-28T11:15:05;3.25;;;1.50;;
41635;SDS011;27623;51.966;4.602;2023-02-28T11:20:26;4.20;;;1.73;;
41635;SDS011;27623;51.966;4.602;2023-02-28T11:22:54;3.38;;;1.60;;
41635;SDS011;27623;51.966;4.602;2023-02-28T11:25:23;2.80;;;1.67;;
41635;SDS011;27623;51.966;4.602;2023-02-28T11:27:50;2.05;;;1.42;;
41635;SDS011;27623;51.966;4.602;2023-02-28T11:30:37;3.03;;;1.50;;
41635;SDS011;27623;51.966;4.602;2023-02-28T11:36:02;2.92;;;1.42;;
41635;SDS011;27623;51.966;4.602;2023-02-28T11:38:34;3.55;;;1.60;;
41635;SDS011;27623;51.966;4.602;2023-02-28T11:46:25;2.65;;;1.40;;
41635;SDS011;27623;51.966;4.602;2023-02-28T11:52:01;2.70;;;1.42;;
41635;SDS011;27623;51.966;4.602;2023-02-28T11:55:21;4.32;;;1.65;;
41635;SDS011;27623;51.966;4.602;2023-02-28T12:06:36;3.58;;;1.90;;
41635;SDS011;27623;51.966;4.602;2023-02-28T12:11:55;4.47;;;1.60;;
41635;SDS011;27623;51.966;4.602;2023-02-28T12:20:02;3.85;;;1.52;;
41635;SDS011;27623;51.966;4.602;2023-02-28T12:22:42;4.00;;;1.35;;
41635;SDS011;27623;51.966;4.602;2023-02-28T12:28:16;2.47;;;1.50;;
41635;SDS011;27623;51.966;4.602;2023-02-28T12:31:09;3.75;;;1.25;;
41635;SDS011;27623;51.966;4.602;2023-02-28T12:33:39;2.30;;;1.25;;
41635;SDS011;27623;51.966;4.602;2023-02-28T12:36:10;2.58;;;1.55;;
41635;SDS011;27623;51.966;4.602;2023-02-28T12:38:56;2.25;;;1.23;;
41635;SDS011;27623;51.966;4.602;2023-02-28T12:44:04;4.43;;;1.50;;
41635;SDS011;27623;51.966;4.602;2023-02-28T12:46:36;2.08;;;1.45;;
41635;SDS011;27623;51.966;4.602;2023-02-28T12:49:08;2.70;;;1.27;;
41635;SDS011;27623;51.966;4.602;2023-02-28T12:51:38;2.97;;;1.60;;
41635;SDS011;27623;51.966;4.602;2023-02-28T12:54:10;2.97;;;1.15;;
41635;SDS011;27623;51.966;4.602;2023-02-28T12:56:42;2.03;;;1.00;;
41635;SDS011;27623;51.966;4.602;2023-02-28T13:09:55;5.13;;;1.50;;
41635;SDS011;27623;51.966;4.602;2023-02-28T13:12:22;4.03;;;1.70;;
41635;SDS011;27623;51.966;4.602;2023-02-28T13:14:49;3.15;;;1.70;;
41635;SDS011;27623;51.966;4.602;2023-02-28T13:17:19;3.10;;;1.60;;
41635;SDS011;27623;51.966;4.602;2023-02-28T13:19:55;3.03;;;1.50;;
41635;SDS011;27623;51.966;4.602;2023-02-28T13:24:56;3.42;;;1.80;;
41635;SDS011;27623;51.966;4.602;2023-02-28T13:27:35;6.18;;;1.73;;
41635;SDS011;27623;51.966;4.602;2023-02-28T13:33:23;3.22;;;1.58;;
41635;SDS011;27623;51.966;4.602;2023-02-28T13:35:59;2.10;;;1.42;;
41635;SDS011;27623;51.966;4.602;2023-02-28T13:38:33;4.03;;;1.90;;
41635;SDS011;27623;51.966;4.602;2023-02-28T13:46:29;2.20;;;1.20;;
41635;SDS011;27623;51.966;4.602;2023-02-28T13:48:55;2.80;;;1.27;;
41635;SDS011;27623;51.966;4.602;2023-02-28T13:51:54;2.22;;;1.27;;
41635;SDS011;27623;51.966;4.602;2023-02-28T14:05:06;2.75;;;1.60;;
41635;SDS011;27623;51.966;4.602;2023-02-28T14:07:43;2.80;;;1.63;;
41635;SDS011;27623;51.966;4.602;2023-02-28T14:10:15;2.45;;;1.40;;
41635;SDS011;27623;51.966;4.602;2023-02-28T14:13:36;2.50;;;1.50;;
41635;SDS011;27623;51.966;4.602;2023-02-28T14:15:55;2.83;;;1.60;;
41635;SDS011;27623;51.966;4.602;2023-02-28T14:20:58;3.83;;;1.50;;
41635;SDS011;27623;51.966;4.602;2023-02-28T14:31:23;2.58;;;1.70;;
41635;SDS011;27623;51.966;4.602;2023-02-28T14:36:39;3.23;;;1.27;;
41635;SDS011;27623;51.966;4.602;2023-02-28T14:39:10;2.10;;;1.42;;
41635;SDS011;27623;51.966;4.602;2023-02-28T14:41:39;5.50;;;1.55;;
41635;SDS011;27623;51.966;4.602;2023-02-28T14:49:18;2.70;;;1.55;;
41635;SDS011;27623;51.966;4.602;2023-02-28T14:51:47;2.85;;;1.42;;
41635;SDS011;27623;51.966;4.602;2023-02-28T14:54:15;3.60;;;1.80;;
41635;SDS011;27623;51.966;4.602;2023-02-28T14:56:43;5.13;;;1.52;;
41635;SDS011;27623;51.966;4.602;2023-02-28T14:59:31;3.78;;;1.60;;
41635;SDS011;27623;51.966;4.602;2023-02-28T15:02:17;3.20;;;1.60;;
41635;SDS011;27623;51.966;4.602;2023-02-28T15:04:43;2.80;;;1.08;;
41635;SDS011;27623;51.966;4.602;2023-02-28T15:07:17;1.98;;;1.25;;
41635;SDS011;27623;51.966;4.602;2023-02-28T15:09:43;2.65;;;1.35;;
41635;SDS011;27623;51.966;4.602;2023-02-28T15:12:09;2.10;;;1.20;;
41635;SDS011;27623;51.966;4.602;2023-02-28T15:14:42;2.67;;;1.42;;
41635;SDS011;27623;51.966;4.602;2023-02-28T15:17:11;4.47;;;1.80;;
41635;SDS011;27623;51.966;4.602;2023-02-28T15:19:48;3.50;;;2.05;;
41635;SDS011;27623;51.966;4.602;2023-02-28T15:22:26;3.72;;;1.40;;
41635;SDS011;27623;51.966;4.602;2023-02-28T15:25:01;2.97;;;1.40;;
41635;SDS011;27623;51.966;4.602;2023-02-28T15:27:31;2.15;;;1.38;;
41635;SDS011;27623;51.966;4.602;2023-02-28T15:29:59;3.25;;;1.17;;
41635;SDS011;27623;51.966;4.602;2023-02-28T15:34:56;3.47;;;1.38;;
41635;SDS011;27623;51.966;4.602;2023-02-28T15:37:32;2.50;;;1.25;;
41635;SDS011;27623;51.966;4.602;2023-02-28T15:40:15;2.55;;;1.42;;
41635;SDS011;27623;51.966;4.602;2023-02-28T15:43:00;2.83;;;1.20;;
41635;SDS011;27623;51.966;4.602;2023-02-28T15:48:06;7.65;;;1.58;;
41635;SDS011;27623;51.966;4.602;2023-02-28T15:50:41;4.45;;;1.58;;
41635;SDS011;27623;51.966;4.602;2023-02-28T15:53:12;4.25;;;1.42;;
41635;SDS011;27623;51.966;4.602;2023-02-28T15:55:40;3.90;;;1.58;;
41635;SDS011;27623;51.966;4.602;2023-02-28T15:58:08;3.42;;;1.52;;
41635;SDS011;27623;51.966;4.602;2023-02-28T16:00:37;2.72;;;1.60;;
41635;SDS011;27623;51.966;4.602;2023-02-28T16:03:23;3.00;;;1.70;;
41635;SDS011;27623;51.966;4.602;2023-02-28T16:08:46;5.25;;;1.92;;
41635;SDS011;27623;51.966;4.602;2023-02-28T16:11:13;4.65;;;2.25;;
41635;SDS011;27623;51.966;4.602;2023-02-28T16:13:41;3.63;;;1.88;;
41635;SDS011;27623;51.966;4.602;2023-02-28T16:16:14;5.57;;;2.50;;
41635;SDS011;27623;51.966;4.602;2023-02-28T16:18:42;4.78;;;2.22;;
41635;SDS011;27623;51.966;4.602;2023-02-28T16:21:08;7.00;;;2.65;;
41635;SDS011;27623;51.966;4.602;2023-02-28T16:23:33;5.78;;;2.92;;
41635;SDS011;27623;51.966;4.602;2023-02-28T16:25:59;5.70;;;2.78;;
41635;SDS011;27623;51.966;4.602;2023-02-28T16:28:29;5.93;;;2.53;;
41635;SDS011;27623;51.966;4.602;2023-02-28T16:31:00;7.07;;;2.65;;
41635;SDS011;27623;51.966;4.602;2023-02-28T16:33:28;3.75;;;2.03;;
41635;SDS011;27623;51.966;4.602;2023-02-28T16:35:54;5.28;;;2.42;;
41635;SDS011;27623;51.966;4.602;2023-02-28T16:38:19;6.18;;;2.55;;
41635;SDS011;27623;51.966;4.602;2023-02-28T16:40:46;3.55;;;2.08;;
41635;SDS011;27623;51.966;4.602;2023-02-28T16:43:18;3.85;;;2.03;;
41635;SDS011;27623;51.966;4.602;2023-02-28T16:45:47;3.50;;;1.95;;
41635;SDS011;27623;51.966;4.602;2023-02-28T16:48:13;4.05;;;2.10;;
41635;SDS011;27623;51.966;4.602;2023-02-28T16:50:41;4.38;;;2.42;;
41635;SDS011;27623;51.966;4.602;2023-02-28T16:53:08;6.15;;;3.00;;
41635;SDS011;27623;51.966;4.602;2023-02-28T16:55:34;4.30;;;2.33;;
41635;SDS011;27623;51.966;4.602;2023-02-28T16:58:00;4.32;;;2.20;;
41635;SDS011;27623;51.966;4.602;2023-02-28T17:00:27;3.33;;;2.25;;
41635;SDS011;27623;51.966;4.602;2023-02-28T17:02:53;3.90;;;2.10;;
41635;SDS011;27623;51.966;4.602;2023-02-28T17:05:20;5.75;;;2.58;;
41635;SDS011;27623;51.966;4.602;2023-02-28T17:07:46;4.90;;;2.60;;
41635;SDS011;27623;51.966;4.602;2023-02-28T17:10:17;4.82;;;2.20;;
41635;SDS011;27623;51.966;4.602;2023-02-28T17:12:44;5.60;;;2.53;;
41635;SDS011;27623;51.966;4.602;2023-02-28T17:15:10;5.93;;;2.35;;
41635;SDS011;27623;51.966;4.602;2023-02-28T17:17:40;5.15;;;2.30;;
41635;SDS011;27623;51.966;4.602;2023-02-28T17:20:09;6.18;;;2.25;;
41635;SDS011;27623;51.966;4.602;2023-02-28T17:22:38;4.13;;;2.78;;
41635;SDS011;27623;51.966;4.602;2023-02-28T17:25:03;6.90;;;2.95;;
41635;SDS011;27623;51.966;4.602;2023-02-28T17:27:30;5.10;;;2.80;;
41635;SDS011;27623;51.966;4.602;2023-02-28T17:29:55;6.00;;;2.97;;
41635;SDS011;27623;51.966;4.602;2023-02-28T17:32:21;5.43;;;3.00;;